sensor_id;sensor_type;location;lat;lon;timestamp;P1;durP1;ratioP1;P2;durP2;ratioP2
9597;SDS011;4837;50.890;4.724;2023-04-19T00:00:41;23.30;;;19.67;;
9597;SDS011;4837;50.890;4.724;2023-04-19T00:03:08;24.10;;;20.75;;
9597;SDS011;4837;50.890;4.724;2023-04-19T00:05:34;25.33;;;20.33;;
9597;SDS011;4837;50.890;4.724;2023-04-19T00:08:02;25.33;;;21.27;;
9597;SDS011;4837;50.890;4.724;2023-04-19T00:10:29;23.50;;;20.23;;
9597;SDS011;4837;50.890;4.724;2023-04-19T00:12:55;23.67;;;20.80;;
9597;SDS011;4837;50.890;4.724;2023-04-19T00:15:21;25.98;;;21.15;;
9597;SDS011;4837;50.890;4.724;2023-04-19T00:17:47;23.17;;;20.17;;
9597;SDS011;4837;50.890;4.724;2023-04-19T00:20:13;24.40;;;19.98;;
9597;SDS011;4837;50.890;4.724;2023-04-19T00:22:39;23.25;;;20.65;;
9597;SDS011;4837;50.890;4.724;2023-04-19T00:25:06;24.63;;;20.48;;
9597;SDS011;4837;50.890;4.724;2023-04-19T00:27:32;24.90;;;21.35;;
9597;SDS011;4837;50.890;4.724;2023-04-19T00:29:58;25.60;;;21.17;;
9597;SDS011;4837;50.890;4.724;2023-04-19T00:32:24;24.40;;;20.55;;
9597;SDS011;4837;50.890;4.724;2023-04-19T00:34:50;25.80;;;21.77;;
9597;SDS011;4837;50.890;4.724;2023-04-19T00:37:17;25.70;;;20.65;;
9597;SDS011;4837;50.890;4.724;2023-04-19T00:39:43;25.60;;;21.38;;
9597;SDS011;4837;50.890;4.724;2023-04-19T00:42:09;24.92;;;21.23;;
9597;SDS011;4837;50.890;4.724;2023-04-19T00:44:35;25.67;;;21.35;;
9597;SDS011;4837;50.890;4.724;2023-04-19T00:47:01;25.05;;;21.17;;
9597;SDS011;4837;50.890;4.724;2023-04-19T00:49:27;25.95;;;22.58;;
9597;SDS011;4837;50.890;4.724;2023-04-19T00:51:54;25.25;;;21.02;;
9597;SDS011;4837;50.890;4.724;2023-04-19T00:54:20;25.17;;;21.63;;
9597;SDS011;4837;50.890;4.724;2023-04-19T00:56:46;26.27;;;22.25;;
9597;SDS011;4837;50.890;4.724;2023-04-19T00:59:16;26.95;;;21.48;;
9597;SDS011;4837;50.890;4.724;2023-04-19T01:01:42;25.88;;;21.58;;
9597;SDS011;4837;50.890;4.724;2023-04-19T01:04:08;24.05;;;20.58;;
9597;SDS011;4837;50.890;4.724;2023-04-19T01:06:34;26.52;;;22.05;;
9597;SDS011;4837;50.890;4.724;2023-04-19T01:09:01;24.67;;;20.50;;
9597;SDS011;4837;50.890;4.724;2023-04-19T01:11:27;24.45;;;21.25;;
9597;SDS011;4837;50.890;4.724;2023-04-19T01:13:56;25.02;;;21.55;;
9597;SDS011;4837;50.890;4.724;2023-04-19T01:16:26;23.80;;;20.85;;
9597;SDS011;4837;50.890;4.724;2023-04-19T01:18:52;24.65;;;21.25;;
9597;SDS011;4837;50.890;4.724;2023-04-19T01:21:18;26.40;;;21.58;;
9597;SDS011;4837;50.890;4.724;2023-04-19T01:23:46;22.48;;;20.02;;
9597;SDS011;4837;50.890;4.724;2023-04-19T01:26:12;23.80;;;20.60;;
9597;SDS011;4837;50.890;4.724;2023-04-19T01:28:38;24.42;;;20.13;;
9597;SDS011;4837;50.890;4.724;2023-04-19T01:31:04;26.35;;;20.80;;
9597;SDS011;4837;50.890;4.724;2023-04-19T01:33:31;23.17;;;20.65;;
9597;SDS011;4837;50.890;4.724;2023-04-19T01:35:57;23.92;;;20.92;;
9597;SDS011;4837;50.890;4.724;2023-04-19T01:38:23;23.25;;;20.40;;
9597;SDS011;4837;50.890;4.724;2023-04-19T01:40:49;23.40;;;19.60;;
9597;SDS011;4837;50.890;4.724;2023-04-19T01:43:16;22.35;;;19.65;;
9597;SDS011;4837;50.890;4.724;2023-04-19T01:45:42;22.58;;;20.00;;
9597;SDS011;4837;50.890;4.724;2023-04-19T01:48:09;22.70;;;19.35;;
9597;SDS011;4837;50.890;4.724;2023-04-19T01:50:35;23.55;;;19.48;;
9597;SDS011;4837;50.890;4.724;2023-04-19T01:53:01;22.52;;;20.08;;
9597;SDS011;4837;50.890;4.724;2023-04-19T01:55:27;21.48;;;18.70;;
9597;SDS011;4837;50.890;4.724;2023-04-19T01:57:54;22.55;;;19.58;;
9597;SDS011;4837;50.890;4.724;2023-04-19T02:00:20;23.73;;;19.20;;
9597;SDS011;4837;50.890;4.724;2023-04-19T02:02:46;21.63;;;19.27;;
9597;SDS011;4837;50.890;4.724;2023-04-19T02:05:13;23.73;;;19.38;;
9597;SDS011;4837;50.890;4.724;2023-04-19T02:07:39;24.10;;;20.10;;
9597;SDS011;4837;50.890;4.724;2023-04-19T02:10:07;22.88;;;19.52;;
9597;SDS011;4837;50.890;4.724;2023-04-19T02:12:34;23.20;;;19.30;;
9597;SDS011;4837;50.890;4.724;2023-04-19T02:15:00;22.02;;;18.75;;
9597;SDS011;4837;50.890;4.724;2023-04-19T02:17:27;21.55;;;19.17;;
9597;SDS011;4837;50.890;4.724;2023-04-19T02:19:53;21.70;;;18.85;;
9597;SDS011;4837;50.890;4.724;2023-04-19T02:22:19;22.63;;;18.90;;
9597;SDS011;4837;50.890;4.724;2023-04-19T02:24:46;24.00;;;18.50;;
9597;SDS011;4837;50.890;4.724;2023-04-19T02:27:13;22.75;;;19.15;;
9597;SDS011;4837;50.890;4.724;2023-04-19T02:29:40;20.10;;;17.80;;
9597;SDS011;4837;50.890;4.724;2023-04-19T02:32:06;22.80;;;19.05;;
9597;SDS011;4837;50.890;4.724;2023-04-19T02:34:32;23.48;;;19.38;;
9597;SDS011;4837;50.890;4.724;2023-04-19T02:36:59;20.90;;;17.73;;
9597;SDS011;4837;50.890;4.724;2023-04-19T02:39:25;21.73;;;19.25;;
9597;SDS011;4837;50.890;4.724;2023-04-19T02:41:51;22.38;;;17.73;;
9597;SDS011;4837;50.890;4.724;2023-04-19T02:44:18;21.45;;;18.10;;
9597;SDS011;4837;50.890;4.724;2023-04-19T02:46:50;20.30;;;18.10;;
9597;SDS011;4837;50.890;4.724;2023-04-19T02:49:17;19.65;;;17.55;;
9597;SDS011;4837;50.890;4.724;2023-04-19T02:51:44;20.75;;;18.25;;
9597;SDS011;4837;50.890;4.724;2023-04-19T02:54:10;19.77;;;17.38;;
9597;SDS011;4837;50.890;4.724;2023-04-19T02:56:36;20.40;;;18.20;;
9597;SDS011;4837;50.890;4.724;2023-04-19T02:59:02;21.25;;;17.52;;
9597;SDS011;4837;50.890;4.724;2023-04-19T03:01:29;23.17;;;18.33;;
9597;SDS011;4837;50.890;4.724;2023-04-19T03:03:55;21.10;;;18.73;;
9597;SDS011;4837;50.890;4.724;2023-04-19T03:06:21;21.73;;;18.08;;
9597;SDS011;4837;50.890;4.724;2023-04-19T03:08:48;19.55;;;17.45;;
9597;SDS011;4837;50.890;4.724;2023-04-19T03:11:14;19.60;;;17.50;;
9597;SDS011;4837;50.890;4.724;2023-04-19T03:13:41;22.88;;;17.52;;
9597;SDS011;4837;50.890;4.724;2023-04-19T03:16:07;20.45;;;16.88;;
9597;SDS011;4837;50.890;4.724;2023-04-19T03:18:33;20.63;;;17.80;;
9597;SDS011;4837;50.890;4.724;2023-04-19T03:21:01;19.88;;;17.38;;
9597;SDS011;4837;50.890;4.724;2023-04-19T03:23:27;19.02;;;16.85;;
9597;SDS011;4837;50.890;4.724;2023-04-19T03:25:54;18.70;;;16.70;;
9597;SDS011;4837;50.890;4.724;2023-04-19T03:28:21;19.70;;;17.63;;
9597;SDS011;4837;50.890;4.724;2023-04-19T03:30:47;20.27;;;17.92;;
9597;SDS011;4837;50.890;4.724;2023-04-19T03:33:13;19.88;;;17.73;;
9597;SDS011;4837;50.890;4.724;2023-04-19T03:35:39;20.83;;;17.88;;
9597;SDS011;4837;50.890;4.724;2023-04-19T03:38:05;19.38;;;17.30;;
9597;SDS011;4837;50.890;4.724;2023-04-19T03:40:32;21.08;;;17.30;;
9597;SDS011;4837;50.890;4.724;2023-04-19T03:42:58;20.35;;;18.17;;
9597;SDS011;4837;50.890;4.724;2023-04-19T03:45:24;22.27;;;18.50;;
9597;SDS011;4837;50.890;4.724;2023-04-19T03:47:51;20.95;;;17.70;;
9597;SDS011;4837;50.890;4.724;2023-04-19T03:50:17;21.40;;;18.08;;
9597;SDS011;4837;50.890;4.724;2023-04-19T03:52:43;21.23;;;17.98;;
9597;SDS011;4837;50.890;4.724;2023-04-19T03:55:09;19.42;;;17.08;;
9597;SDS011;4837;50.890;4.724;2023-04-19T03:57:36;21.20;;;18.50;;
9597;SDS011;4837;50.890;4.724;2023-04-19T04:00:03;21.38;;;17.75;;
9597;SDS011;4837;50.890;4.724;2023-04-19T04:02:33;24.30;;;19.25;;
9597;SDS011;4837;50.890;4.724;2023-04-19T04:04:59;20.73;;;18.25;;
9597;SDS011;4837;50.890;4.724;2023-04-19T04:07:25;24.23;;;18.80;;
9597;SDS011;4837;50.890;4.724;2023-04-19T04:09:51;21.67;;;18.00;;
9597;SDS011;4837;50.890;4.724;2023-04-19T04:12:17;23.77;;;18.98;;
9597;SDS011;4837;50.890;4.724;2023-04-19T04:14:43;20.92;;;17.13;;
9597;SDS011;4837;50.890;4.724;2023-04-19T04:17:09;21.65;;;17.95;;
9597;SDS011;4837;50.890;4.724;2023-04-19T04:19:35;23.38;;;19.17;;
9597;SDS011;4837;50.890;4.724;2023-04-19T04:22:02;22.13;;;18.25;;
9597;SDS011;4837;50.890;4.724;2023-04-19T04:24:28;23.67;;;18.00;;
9597;SDS011;4837;50.890;4.724;2023-04-19T04:26:56;23.63;;;18.97;;
9597;SDS011;4837;50.890;4.724;2023-04-19T04:29:25;24.38;;;19.02;;
9597;SDS011;4837;50.890;4.724;2023-04-19T04:31:51;23.67;;;19.52;;
9597;SDS011;4837;50.890;4.724;2023-04-19T04:34:17;23.38;;;18.83;;
9597;SDS011;4837;50.890;4.724;2023-04-19T04:36:44;24.63;;;19.30;;
9597;SDS011;4837;50.890;4.724;2023-04-19T04:39:11;22.48;;;18.25;;
9597;SDS011;4837;50.890;4.724;2023-04-19T04:41:37;23.13;;;18.45;;
9597;SDS011;4837;50.890;4.724;2023-04-19T04:44:06;23.38;;;18.52;;
9597;SDS011;4837;50.890;4.724;2023-04-19T04:46:33;23.70;;;19.02;;
9597;SDS011;4837;50.890;4.724;2023-04-19T04:49:00;23.85;;;19.83;;
9597;SDS011;4837;50.890;4.724;2023-04-19T04:51:26;23.30;;;19.33;;
9597;SDS011;4837;50.890;4.724;2023-04-19T04:53:52;24.05;;;19.88;;
9597;SDS011;4837;50.890;4.724;2023-04-19T04:56:18;24.48;;;19.27;;
9597;SDS011;4837;50.890;4.724;2023-04-19T04:58:44;24.33;;;19.73;;
9597;SDS011;4837;50.890;4.724;2023-04-19T05:01:10;26.92;;;19.98;;
9597;SDS011;4837;50.890;4.724;2023-04-19T05:03:36;24.08;;;20.10;;
9597;SDS011;4837;50.890;4.724;2023-04-19T05:06:02;27.15;;;20.70;;
9597;SDS011;4837;50.890;4.724;2023-04-19T05:08:29;24.27;;;20.13;;
9597;SDS011;4837;50.890;4.724;2023-04-19T05:10:55;26.45;;;20.75;;
9597;SDS011;4837;50.890;4.724;2023-04-19T05:13:22;26.48;;;20.77;;
9597;SDS011;4837;50.890;4.724;2023-04-19T05:15:48;25.10;;;20.70;;
9597;SDS011;4837;50.890;4.724;2023-04-19T05:18:14;26.58;;;20.05;;
9597;SDS011;4837;50.890;4.724;2023-04-19T05:20:41;25.48;;;20.63;;
9597;SDS011;4837;50.890;4.724;2023-04-19T05:23:07;26.75;;;22.17;;
9597;SDS011;4837;50.890;4.724;2023-04-19T05:25:35;28.17;;;20.70;;
9597;SDS011;4837;50.890;4.724;2023-04-19T05:28:01;26.75;;;20.48;;
9597;SDS011;4837;50.890;4.724;2023-04-19T05:30:27;25.70;;;20.95;;
9597;SDS011;4837;50.890;4.724;2023-04-19T05:32:54;27.10;;;21.45;;
9597;SDS011;4837;50.890;4.724;2023-04-19T05:35:20;29.75;;;21.73;;
9597;SDS011;4837;50.890;4.724;2023-04-19T05:37:46;26.05;;;20.23;;
9597;SDS011;4837;50.890;4.724;2023-04-19T05:40:12;25.55;;;20.13;;
9597;SDS011;4837;50.890;4.724;2023-04-19T05:42:39;25.63;;;20.98;;
9597;SDS011;4837;50.890;4.724;2023-04-19T05:45:05;25.63;;;20.02;;
9597;SDS011;4837;50.890;4.724;2023-04-19T05:47:31;26.38;;;20.33;;
9597;SDS011;4837;50.890;4.724;2023-04-19T05:49:57;24.27;;;19.88;;
9597;SDS011;4837;50.890;4.724;2023-04-19T05:52:23;23.50;;;19.58;;
9597;SDS011;4837;50.890;4.724;2023-04-19T05:54:50;25.48;;;20.92;;
9597;SDS011;4837;50.890;4.724;2023-04-19T05:57:16;23.48;;;19.08;;
9597;SDS011;4837;50.890;4.724;2023-04-19T05:59:42;24.02;;;19.92;;
9597;SDS011;4837;50.890;4.724;2023-04-19T06:02:08;23.40;;;19.25;;
9597;SDS011;4837;50.890;4.724;2023-04-19T06:04:34;24.02;;;20.00;;
9597;SDS011;4837;50.890;4.724;2023-04-19T06:07:01;25.75;;;20.58;;
9597;SDS011;4837;50.890;4.724;2023-04-19T06:09:27;25.95;;;19.48;;
9597;SDS011;4837;50.890;4.724;2023-04-19T06:11:53;23.58;;;19.63;;
9597;SDS011;4837;50.890;4.724;2023-04-19T06:14:19;24.90;;;19.30;;
9597;SDS011;4837;50.890;4.724;2023-04-19T06:16:45;22.58;;;18.30;;
9597;SDS011;4837;50.890;4.724;2023-04-19T06:19:11;23.25;;;18.60;;
9597;SDS011;4837;50.890;4.724;2023-04-19T06:21:37;23.80;;;18.80;;
9597;SDS011;4837;50.890;4.724;2023-04-19T06:24:06;25.58;;;18.92;;
9597;SDS011;4837;50.890;4.724;2023-04-19T06:26:33;21.85;;;18.70;;
9597;SDS011;4837;50.890;4.724;2023-04-19T06:28:59;23.10;;;18.40;;
9597;SDS011;4837;50.890;4.724;2023-04-19T06:31:25;27.75;;;18.55;;
9597;SDS011;4837;50.890;4.724;2023-04-19T06:33:51;21.02;;;17.67;;
9597;SDS011;4837;50.890;4.724;2023-04-19T06:36:17;20.77;;;18.02;;
9597;SDS011;4837;50.890;4.724;2023-04-19T06:38:43;22.45;;;17.63;;
9597;SDS011;4837;50.890;4.724;2023-04-19T06:41:10;27.48;;;18.90;;
9597;SDS011;4837;50.890;4.724;2023-04-19T06:43:36;23.58;;;19.35;;
9597;SDS011;4837;50.890;4.724;2023-04-19T06:46:04;20.95;;;16.95;;
9597;SDS011;4837;50.890;4.724;2023-04-19T06:48:32;23.92;;;17.75;;
9597;SDS011;4837;50.890;4.724;2023-04-19T06:50:58;23.35;;;17.25;;
9597;SDS011;4837;50.890;4.724;2023-04-19T06:53:24;20.83;;;16.75;;
9597;SDS011;4837;50.890;4.724;2023-04-19T06:56:00;19.23;;;16.85;;
9597;SDS011;4837;50.890;4.724;2023-04-19T06:58:27;20.65;;;17.50;;
9597;SDS011;4837;50.890;4.724;2023-04-19T07:00:53;19.83;;;17.13;;
9597;SDS011;4837;50.890;4.724;2023-04-19T07:03:20;20.83;;;16.50;;
9597;SDS011;4837;50.890;4.724;2023-04-19T07:05:46;20.10;;;16.85;;
9597;SDS011;4837;50.890;4.724;2023-04-19T07:08:12;20.48;;;15.82;;
9597;SDS011;4837;50.890;4.724;2023-04-19T07:10:38;18.77;;;16.10;;
9597;SDS011;4837;50.890;4.724;2023-04-19T07:13:04;18.60;;;16.35;;
9597;SDS011;4837;50.890;4.724;2023-04-19T07:15:30;20.35;;;15.93;;
9597;SDS011;4837;50.890;4.724;2023-04-19T07:17:56;17.95;;;15.63;;
9597;SDS011;4837;50.890;4.724;2023-04-19T07:20:23;19.70;;;14.98;;
9597;SDS011;4837;50.890;4.724;2023-04-19T07:22:49;18.10;;;14.45;;
9597;SDS011;4837;50.890;4.724;2023-04-19T07:25:15;17.25;;;14.35;;
9597;SDS011;4837;50.890;4.724;2023-04-19T07:27:41;17.20;;;14.57;;
9597;SDS011;4837;50.890;4.724;2023-04-19T07:30:07;17.30;;;13.55;;
9597;SDS011;4837;50.890;4.724;2023-04-19T07:32:34;18.15;;;13.80;;
9597;SDS011;4837;50.890;4.724;2023-04-19T07:35:00;17.10;;;13.23;;
9597;SDS011;4837;50.890;4.724;2023-04-19T07:37:26;14.45;;;12.75;;
9597;SDS011;4837;50.890;4.724;2023-04-19T07:39:52;15.68;;;12.90;;
9597;SDS011;4837;50.890;4.724;2023-04-19T07:42:18;13.38;;;11.98;;
9597;SDS011;4837;50.890;4.724;2023-04-19T07:44:45;13.15;;;11.75;;
9597;SDS011;4837;50.890;4.724;2023-04-19T07:47:11;14.25;;;11.77;;
9597;SDS011;4837;50.890;4.724;2023-04-19T07:49:37;12.82;;;11.20;;
9597;SDS011;4837;50.890;4.724;2023-04-19T07:52:06;16.42;;;12.18;;
9597;SDS011;4837;50.890;4.724;2023-04-19T07:54:32;14.35;;;11.85;;
9597;SDS011;4837;50.890;4.724;2023-04-19T07:56:58;12.98;;;11.57;;
9597;SDS011;4837;50.890;4.724;2023-04-19T07:59:24;13.15;;;11.82;;
9597;SDS011;4837;50.890;4.724;2023-04-19T08:01:50;12.70;;;11.18;;
9597;SDS011;4837;50.890;4.724;2023-04-19T08:04:16;13.82;;;11.77;;
9597;SDS011;4837;50.890;4.724;2023-04-19T08:06:44;12.82;;;11.52;;
9597;SDS011;4837;50.890;4.724;2023-04-19T08:09:10;14.30;;;11.48;;
9597;SDS011;4837;50.890;4.724;2023-04-19T08:11:36;14.70;;;11.68;;
9597;SDS011;4837;50.890;4.724;2023-04-19T08:14:02;13.07;;;11.68;;
9597;SDS011;4837;50.890;4.724;2023-04-19T08:16:28;12.18;;;10.88;;
9597;SDS011;4837;50.890;4.724;2023-04-19T08:18:54;15.27;;;11.25;;
9597;SDS011;4837;50.890;4.724;2023-04-19T08:21:20;13.13;;;11.73;;
9597;SDS011;4837;50.890;4.724;2023-04-19T08:23:46;12.88;;;11.50;;
9597;SDS011;4837;50.890;4.724;2023-04-19T08:26:13;13.35;;;11.10;;
9597;SDS011;4837;50.890;4.724;2023-04-19T08:28:39;12.68;;;10.90;;
9597;SDS011;4837;50.890;4.724;2023-04-19T08:31:05;12.15;;;10.85;;
9597;SDS011;4837;50.890;4.724;2023-04-19T08:33:32;12.00;;;10.80;;
9597;SDS011;4837;50.890;4.724;2023-04-19T08:35:58;12.20;;;10.98;;
9597;SDS011;4837;50.890;4.724;2023-04-19T08:38:24;11.55;;;10.35;;
9597;SDS011;4837;50.890;4.724;2023-04-19T08:40:53;14.27;;;11.43;;
9597;SDS011;4837;50.890;4.724;2023-04-19T08:43:20;11.50;;;10.40;;
9597;SDS011;4837;50.890;4.724;2023-04-19T08:45:46;13.00;;;10.60;;
9597;SDS011;4837;50.890;4.724;2023-04-19T08:48:14;11.63;;;10.52;;
9597;SDS011;4837;50.890;4.724;2023-04-19T08:50:40;11.50;;;10.40;;
9597;SDS011;4837;50.890;4.724;2023-04-19T08:53:07;11.68;;;10.55;;
9597;SDS011;4837;50.890;4.724;2023-04-19T08:55:34;13.30;;;10.20;;
9597;SDS011;4837;50.890;4.724;2023-04-19T08:58:01;12.93;;;10.02;;
9597;SDS011;4837;50.890;4.724;2023-04-19T09:00:28;10.43;;;9.43;;
9597;SDS011;4837;50.890;4.724;2023-04-19T09:02:54;10.70;;;9.70;;
9597;SDS011;4837;50.890;4.724;2023-04-19T09:05:20;10.77;;;9.57;;
9597;SDS011;4837;50.890;4.724;2023-04-19T09:07:46;9.82;;;8.82;;
9597;SDS011;4837;50.890;4.724;2023-04-19T09:10:13;10.45;;;9.20;;
9597;SDS011;4837;50.890;4.724;2023-04-19T09:12:40;10.25;;;9.25;;
9597;SDS011;4837;50.890;4.724;2023-04-19T09:15:07;10.02;;;9.13;;
9597;SDS011;4837;50.890;4.724;2023-04-19T09:17:34;9.25;;;8.27;;
9597;SDS011;4837;50.890;4.724;2023-04-19T09:20:00;9.75;;;8.65;;
9597;SDS011;4837;50.890;4.724;2023-04-19T09:22:27;9.98;;;8.90;;
9597;SDS011;4837;50.890;4.724;2023-04-19T09:24:53;9.57;;;8.60;;
9597;SDS011;4837;50.890;4.724;2023-04-19T09:27:27;9.00;;;8.10;;
9597;SDS011;4837;50.890;4.724;2023-04-19T09:29:54;11.57;;;8.13;;
9597;SDS011;4837;50.890;4.724;2023-04-19T09:32:20;9.10;;;8.15;;
9597;SDS011;4837;50.890;4.724;2023-04-19T09:34:50;9.25;;;8.25;;
9597;SDS011;4837;50.890;4.724;2023-04-19T09:37:17;8.10;;;7.35;;
9597;SDS011;4837;50.890;4.724;2023-04-19T09:39:43;8.65;;;7.47;;
9597;SDS011;4837;50.890;4.724;2023-04-19T09:42:09;8.85;;;7.10;;
9597;SDS011;4837;50.890;4.724;2023-04-19T09:44:35;7.80;;;7.00;;
9597;SDS011;4837;50.890;4.724;2023-04-19T09:47:01;6.90;;;6.30;;
9597;SDS011;4837;50.890;4.724;2023-04-19T09:49:28;8.65;;;6.00;;
9597;SDS011;4837;50.890;4.724;2023-04-19T09:51:54;7.45;;;6.45;;
9597;SDS011;4837;50.890;4.724;2023-04-19T09:54:21;7.22;;;6.53;;
9597;SDS011;4837;50.890;4.724;2023-04-19T09:56:48;7.18;;;6.35;;
9597;SDS011;4837;50.890;4.724;2023-04-19T09:59:15;6.35;;;5.85;;
9597;SDS011;4837;50.890;4.724;2023-04-19T10:01:49;7.05;;;6.35;;
9597;SDS011;4837;50.890;4.724;2023-04-19T10:04:16;7.13;;;6.40;;
9597;SDS011;4837;50.890;4.724;2023-04-19T10:06:49;7.30;;;6.43;;
9597;SDS011;4837;50.890;4.724;2023-04-19T10:09:19;6.18;;;5.68;;
9597;SDS011;4837;50.890;4.724;2023-04-19T10:11:50;6.55;;;5.93;;
9597;SDS011;4837;50.890;4.724;2023-04-19T10:14:18;9.23;;;6.65;;
9597;SDS011;4837;50.890;4.724;2023-04-19T10:16:45;8.98;;;6.13;;
9597;SDS011;4837;50.890;4.724;2023-04-19T10:19:12;6.40;;;5.82;;
9597;SDS011;4837;50.890;4.724;2023-04-19T10:21:40;6.82;;;6.22;;
9597;SDS011;4837;50.890;4.724;2023-04-19T10:24:07;6.72;;;5.68;;
9597;SDS011;4837;50.890;4.724;2023-04-19T10:27:15;6.95;;;6.35;;
9597;SDS011;4837;50.890;4.724;2023-04-19T10:32:11;6.30;;;5.70;;
9597;SDS011;4837;50.890;4.724;2023-04-19T10:34:38;9.10;;;6.07;;
9597;SDS011;4837;50.890;4.724;2023-04-19T10:37:08;7.15;;;6.45;;
9597;SDS011;4837;50.890;4.724;2023-04-19T10:39:42;7.20;;;6.50;;
9597;SDS011;4837;50.890;4.724;2023-04-19T10:42:08;6.30;;;5.70;;
9597;SDS011;4837;50.890;4.724;2023-04-19T10:44:35;6.85;;;6.15;;
9597;SDS011;4837;50.890;4.724;2023-04-19T10:47:01;7.38;;;6.60;;
9597;SDS011;4837;50.890;4.724;2023-04-19T10:49:30;7.95;;;7.15;;
9597;SDS011;4837;50.890;4.724;2023-04-19T10:51:56;7.55;;;6.85;;
9597;SDS011;4837;50.890;4.724;2023-04-19T10:54:27;7.45;;;6.70;;
9597;SDS011;4837;50.890;4.724;2023-04-19T10:59:25;7.03;;;6.32;;
9597;SDS011;4837;50.890;4.724;2023-04-19T11:04:21;7.45;;;6.75;;
9597;SDS011;4837;50.890;4.724;2023-04-19T11:09:24;8.35;;;7.00;;
9597;SDS011;4837;50.890;4.724;2023-04-19T11:11:51;9.25;;;6.78;;
9597;SDS011;4837;50.890;4.724;2023-04-19T11:14:18;8.75;;;7.30;;
9597;SDS011;4837;50.890;4.724;2023-04-19T11:16:45;8.07;;;7.15;;
9597;SDS011;4837;50.890;4.724;2023-04-19T11:19:14;8.82;;;7.22;;
9597;SDS011;4837;50.890;4.724;2023-04-19T11:21:40;9.20;;;7.20;;
9597;SDS011;4837;50.890;4.724;2023-04-19T11:24:07;7.75;;;6.95;;
9597;SDS011;4837;50.890;4.724;2023-04-19T11:26:33;9.10;;;7.38;;
9597;SDS011;4837;50.890;4.724;2023-04-19T11:29:00;8.90;;;7.47;;
9597;SDS011;4837;50.890;4.724;2023-04-19T11:31:26;7.63;;;6.65;;
9597;SDS011;4837;50.890;4.724;2023-04-19T11:33:53;8.10;;;7.30;;
9597;SDS011;4837;50.890;4.724;2023-04-19T11:36:19;7.57;;;6.45;;
9597;SDS011;4837;50.890;4.724;2023-04-19T11:38:48;7.00;;;6.30;;
9597;SDS011;4837;50.890;4.724;2023-04-19T11:41:14;7.93;;;6.28;;
9597;SDS011;4837;50.890;4.724;2023-04-19T11:43:40;6.88;;;6.28;;
9597;SDS011;4837;50.890;4.724;2023-04-19T11:46:09;10.25;;;6.70;;
9597;SDS011;4837;50.890;4.724;2023-04-19T11:48:36;7.60;;;6.90;;
9597;SDS011;4837;50.890;4.724;2023-04-19T11:51:03;7.22;;;6.53;;
9597;SDS011;4837;50.890;4.724;2023-04-19T11:53:30;8.30;;;6.13;;
9597;SDS011;4837;50.890;4.724;2023-04-19T11:56:03;7.88;;;6.38;;
9597;SDS011;4837;50.890;4.724;2023-04-19T11:58:45;7.93;;;7.05;;
9597;SDS011;4837;50.890;4.724;2023-04-19T12:01:19;7.30;;;5.88;;
9597;SDS011;4837;50.890;4.724;2023-04-19T12:03:49;7.50;;;6.28;;
9597;SDS011;4837;50.890;4.724;2023-04-19T12:06:25;10.32;;;6.07;;
9597;SDS011;4837;50.890;4.724;2023-04-19T12:08:52;6.93;;;5.60;;
9597;SDS011;4837;50.890;4.724;2023-04-19T12:14:14;6.70;;;5.28;;
9597;SDS011;4837;50.890;4.724;2023-04-19T12:16:40;9.82;;;5.57;;
9597;SDS011;4837;50.890;4.724;2023-04-19T12:19:12;6.00;;;5.40;;
9597;SDS011;4837;50.890;4.724;2023-04-19T12:21:39;8.13;;;4.90;;
9597;SDS011;4837;50.890;4.724;2023-04-19T12:24:06;6.43;;;5.18;;
9597;SDS011;4837;50.890;4.724;2023-04-19T12:26:32;5.18;;;4.53;;
9597;SDS011;4837;50.890;4.724;2023-04-19T12:28:59;5.82;;;5.28;;
9597;SDS011;4837;50.890;4.724;2023-04-19T12:31:25;7.50;;;5.15;;
9597;SDS011;4837;50.890;4.724;2023-04-19T12:33:52;8.98;;;5.03;;
9597;SDS011;4837;50.890;4.724;2023-04-19T12:36:18;5.80;;;4.78;;
9597;SDS011;4837;50.890;4.724;2023-04-19T12:38:45;4.85;;;4.32;;
9597;SDS011;4837;50.890;4.724;2023-04-19T12:41:11;7.90;;;4.72;;
9597;SDS011;4837;50.890;4.724;2023-04-19T12:43:37;4.53;;;4.10;;
9597;SDS011;4837;50.890;4.724;2023-04-19T12:46:03;5.30;;;4.70;;
9597;SDS011;4837;50.890;4.724;2023-04-19T12:48:30;4.90;;;4.20;;
9597;SDS011;4837;50.890;4.724;2023-04-19T12:50:56;4.75;;;3.90;;
9597;SDS011;4837;50.890;4.724;2023-04-19T12:53:22;4.32;;;3.70;;
9597;SDS011;4837;50.890;4.724;2023-04-19T12:55:49;5.25;;;3.65;;
9597;SDS011;4837;50.890;4.724;2023-04-19T12:58:15;4.78;;;3.58;;
9597;SDS011;4837;50.890;4.724;2023-04-19T13:00:42;5.78;;;3.70;;
9597;SDS011;4837;50.890;4.724;2023-04-19T13:03:08;4.93;;;3.95;;
9597;SDS011;4837;50.890;4.724;2023-04-19T13:05:37;6.82;;;4.90;;
9597;SDS011;4837;50.890;4.724;2023-04-19T13:08:04;7.50;;;5.25;;
9597;SDS011;4837;50.890;4.724;2023-04-19T13:10:30;6.53;;;4.97;;
9597;SDS011;4837;50.890;4.724;2023-04-19T13:12:56;8.05;;;4.75;;
9597;SDS011;4837;50.890;4.724;2023-04-19T13:15:23;6.82;;;5.05;;
9597;SDS011;4837;50.890;4.724;2023-04-19T13:17:49;6.57;;;5.40;;
9597;SDS011;4837;50.890;4.724;2023-04-19T13:20:17;8.43;;;5.20;;
9597;SDS011;4837;50.890;4.724;2023-04-19T13:22:44;6.50;;;4.03;;
9597;SDS011;4837;50.890;4.724;2023-04-19T13:25:10;4.70;;;3.60;;
9597;SDS011;4837;50.890;4.724;2023-04-19T13:27:36;10.75;;;3.85;;
9597;SDS011;4837;50.890;4.724;2023-04-19T13:30:02;5.18;;;3.65;;
9597;SDS011;4837;50.890;4.724;2023-04-19T13:32:29;3.85;;;3.55;;
9597;SDS011;4837;50.890;4.724;2023-04-19T13:34:55;9.10;;;3.28;;
9597;SDS011;4837;50.890;4.724;2023-04-19T13:37:21;8.88;;;3.03;;
9597;SDS011;4837;50.890;4.724;2023-04-19T13:39:47;5.50;;;3.03;;
9597;SDS011;4837;50.890;4.724;2023-04-19T13:42:13;3.38;;;2.40;;
9597;SDS011;4837;50.890;4.724;2023-04-19T13:44:39;3.13;;;2.80;;
9597;SDS011;4837;50.890;4.724;2023-04-19T13:47:05;4.68;;;2.80;;
9597;SDS011;4837;50.890;4.724;2023-04-19T13:49:31;4.57;;;2.42;;
9597;SDS011;4837;50.890;4.724;2023-04-19T13:51:58;3.72;;;2.42;;
9597;SDS011;4837;50.890;4.724;2023-04-19T13:54:24;5.30;;;2.72;;
9597;SDS011;4837;50.890;4.724;2023-04-19T13:56:50;15.15;;;3.22;;
9597;SDS011;4837;50.890;4.724;2023-04-19T13:59:16;4.47;;;2.60;;
9597;SDS011;4837;50.890;4.724;2023-04-19T14:01:42;3.97;;;3.00;;
9597;SDS011;4837;50.890;4.724;2023-04-19T14:04:08;2.80;;;2.60;;
9597;SDS011;4837;50.890;4.724;2023-04-19T14:06:35;12.68;;;3.70;;
9597;SDS011;4837;50.890;4.724;2023-04-19T14:09:01;3.28;;;2.50;;
9597;SDS011;4837;50.890;4.724;2023-04-19T14:11:27;6.97;;;2.92;;
9597;SDS011;4837;50.890;4.724;2023-04-19T14:13:53;4.43;;;2.20;;
9597;SDS011;4837;50.890;4.724;2023-04-19T14:16:19;4.47;;;2.33;;
9597;SDS011;4837;50.890;4.724;2023-04-19T14:18:48;3.85;;;2.10;;
9597;SDS011;4837;50.890;4.724;2023-04-19T14:21:14;6.95;;;2.92;;
9597;SDS011;4837;50.890;4.724;2023-04-19T14:23:40;4.03;;;2.72;;
9597;SDS011;4837;50.890;4.724;2023-04-19T14:26:06;4.60;;;3.13;;
9597;SDS011;4837;50.890;4.724;2023-04-19T14:28:32;2.95;;;2.47;;
9597;SDS011;4837;50.890;4.724;2023-04-19T14:30:58;3.92;;;2.78;;
9597;SDS011;4837;50.890;4.724;2023-04-19T14:33:24;2.70;;;2.35;;
9597;SDS011;4837;50.890;4.724;2023-04-19T14:35:51;3.20;;;2.90;;
9597;SDS011;4837;50.890;4.724;2023-04-19T14:38:17;3.75;;;2.67;;
9597;SDS011;4837;50.890;4.724;2023-04-19T14:40:43;3.50;;;2.78;;
9597;SDS011;4837;50.890;4.724;2023-04-19T14:43:10;4.22;;;2.90;;
9597;SDS011;4837;50.890;4.724;2023-04-19T14:45:36;2.72;;;2.53;;
9597;SDS011;4837;50.890;4.724;2023-04-19T14:48:02;4.70;;;2.80;;
9597;SDS011;4837;50.890;4.724;2023-04-19T14:50:28;6.70;;;2.60;;
9597;SDS011;4837;50.890;4.724;2023-04-19T14:52:54;2.90;;;2.40;;
9597;SDS011;4837;50.890;4.724;2023-04-19T14:55:21;4.10;;;2.58;;
9597;SDS011;4837;50.890;4.724;2023-04-19T14:57:49;4.97;;;2.28;;
9597;SDS011;4837;50.890;4.724;2023-04-19T15:00:15;3.78;;;2.38;;
9597;SDS011;4837;50.890;4.724;2023-04-19T15:02:41;3.72;;;2.40;;
9597;SDS011;4837;50.890;4.724;2023-04-19T15:05:07;2.92;;;2.30;;
9597;SDS011;4837;50.890;4.724;2023-04-19T15:07:33;2.88;;;2.15;;